釜山 の空港の天気 - METARとTAF

金海国際空港 ( RKPK / PUS ) - 韓国 釜山広域市
飛行場実況気象(Metar)
観測時間07/19 12:00 KST (07/19 03:00 UTC)
風向・風速東南東 5m/s
視程6000m
天気現象弱い雨
全天の4割程度の雲 雲底高度 150m
全天の8割程度の雲 雲底高度 300m
全天を覆う雲 雲底高度 610m
気温25℃
湿度89%
気圧1008hPa
METARRKPK 190300Z 12010KT 6000 -RA SCT005 BKN010 OVC020 25/23 Q1008
過去の天気等 Google飛行場航空写真 Wunderground天気予報

過去48時間のMETAR

飛行場予報(TAF)
発表時間: 7/19 08:00 KST (7/18 23:00 UTC)
予報対象時間: 19日9時 KST ~ 20日15時 KST
風向・風速東北東 5m/s
視程4800m
天気現象弱い雨 もや
全天の8割程度の雲 雲底高度 300m
全天を覆う雲 雲底高度 610m
19日17時 KST ~ 19日18時 KST に徐々に
風向・風速南南東 7m/s
20日0時 KST ~ 20日1時 KST に徐々に
風向・風速南 8m/s 瞬間風速 15m/s
視程1600m
TAF RKPK 182300Z 1900/2006 06010KT 4800 -RA BR BKN010 OVC020 TX25/1906Z TN24/1921Z
BECMG 1908/1909 15013KT
BECMG 1915/1916 18015G30KT 1600